createdAt,value
2017-10-24T00:00:32.382Z,97.1
2017-10-24T00:01:31.524Z,97.1
2017-10-24T00:02:30.905Z,97.1
2017-10-24T00:03:30.043Z,97.1
2017-10-24T00:04:29.043Z,97
2017-10-24T00:05:28.332Z,97
2017-10-24T00:06:27.609Z,97.1
2017-10-24T00:07:26.759Z,97.1
2017-10-24T00:08:25.892Z,97.1
2017-10-24T00:09:24.893Z,97
2017-10-24T00:10:23.893Z,96.9
2017-10-24T00:11:22.895Z,96.8
2017-10-24T00:12:22.052Z,96.8
2017-10-24T00:13:21.323Z,96.6
2017-10-24T00:14:20.334Z,96.8
2017-10-24T00:15:19.577Z,96.3
2017-10-24T00:16:18.952Z,96.3
2017-10-24T00:17:17.958Z,96.5
2017-10-24T00:18:16.827Z,96.5
2017-10-24T00:20:15.495Z,96.4
2017-10-24T00:21:14.770Z,96.2
2017-10-24T00:22:13.908Z,96.1
2017-10-24T00:23:12.918Z,96
2017-10-24T00:24:11.664Z,95.8
2017-10-24T00:25:10.931Z,95.8
2017-10-24T00:26:10.177Z,95.8
2017-10-24T00:27:09.174Z,95.9
2017-10-24T00:28:08.304Z,96
2017-10-24T00:29:07.324Z,96
2017-10-24T00:29:37.769Z,96
2017-10-24T00:31:05.598Z,95.9
2017-10-24T00:32:05.244Z,95.9
2017-10-24T00:33:04.111Z,95.8
2017-10-24T00:34:03.113Z,95.9
2017-10-24T00:35:02.626Z,95.9
2017-10-24T00:36:01.771Z,95.9
2017-10-24T00:37:00.642Z,96
2017-10-24T00:37:59.639Z,96
2017-10-24T00:38:59.010Z,96
2017-10-24T00:39:58.288Z,96
2017-10-24T00:40:57.562Z,95.9
2017-10-24T00:41:56.695Z,95.8
2017-10-24T00:42:55.326Z,95.9
2017-10-24T00:43:54.699Z,96
2017-10-24T00:44:53.842Z,95.9
2017-10-24T00:45:52.850Z,95.9
2017-10-24T00:46:52.010Z,95.9
2017-10-24T00:47:51.255Z,95.8
2017-10-24T00:48:50.384Z,95.8
2017-10-24T00:49:49.525Z,95.8
2017-10-24T00:50:48.397Z,95.5
2017-10-24T00:51:48.039Z,95.5
2017-10-24T00:52:47.041Z,95.6
2017-10-24T00:53:46.044Z,95.8
2017-10-24T00:54:45.317Z,95.8
2017-10-24T00:55:44.464Z,95.9
2017-10-24T00:56:43.836Z,96
2017-10-24T00:57:42.966Z,95.6
2017-10-24T00:58:41.973Z,95.5
2017-10-24T00:59:40.842Z,95.5
2017-10-24T01:00:40.088Z,95.6
2017-10-24T01:01:38.962Z,95.6
2017-10-24T01:02:38.104Z,95.8
2017-10-24T01:03:37.618Z,95.8
2017-10-24T01:04:36.747Z,95.8
2017-10-24T01:05:35.904Z,95.9
2017-10-24T01:06:35.037Z,96
2017-10-24T01:07:34.293Z,95.9
2017-10-24T01:08:33.160Z,95.7
2017-10-24T01:09:32.294Z,95.6
2017-10-24T01:10:31.562Z,95.8
2017-10-24T01:11:30.691Z,95.9
2017-10-24T01:12:29.701Z,95.9
2017-10-24T01:13:28.837Z,96
2017-10-24T01:14:28.225Z,96.1
2017-10-24T01:15:27.241Z,96.1
2017-10-24T01:16:26.380Z,96.1
2017-10-24T01:17:25.393Z,95.9
2017-10-24T01:18:24.897Z,96
2017-10-24T01:19:23.815Z,96
2017-10-24T01:20:22.826Z,96
2017-10-24T01:21:22.238Z,95.9
2017-10-24T01:22:21.377Z,95.9
2017-10-24T01:24:19.265Z,96
2017-10-24T01:25:18.535Z,96.1
2017-10-24T01:26:17.676Z,96
2017-10-24T01:27:17.053Z,96.1
2017-10-24T01:28:15.928Z,96.1
2017-10-24T01:29:15.558Z,96
2017-10-24T01:30:14.460Z,96.1
2017-10-24T01:31:13.604Z,95.7
2017-10-24T01:32:12.876Z,95.8
2017-10-24T01:33:12.015Z,95.7
2017-10-24T01:34:11.012Z,95.7
2017-10-24T01:35:09.879Z,95.7
2017-10-24T01:36:09.520Z,95.6
2017-10-24T01:37:08.299Z,95.7
2017-10-24T01:38:07.439Z,95.8
2017-10-24T01:39:06.445Z,95.9
2017-10-24T01:40:05.975Z,95.8
2017-10-24T01:41:05.116Z,95.9
2017-10-24T01:42:04.254Z,95.8
2017-10-24T01:43:03.265Z,95.9
2017-10-24T01:44:02.536Z,95.8
2017-10-24T01:45:01.812Z,95.6
2017-10-24T01:46:00.718Z,95.6
2017-10-24T01:47:00.092Z,95.6
2017-10-24T01:48:58.121Z,95.4
2017-10-24T01:49:56.992Z,95.3
2017-10-24T01:50:56.265Z,95.5
2017-10-24T01:51:55.405Z,95.3
2017-10-24T01:52:54.407Z,95.4
2017-10-24T01:53:53.685Z,95.5
2017-10-24T01:54:53.063Z,95.5
2017-10-24T01:55:51.960Z,95.3
2017-10-24T01:56:51.104Z,95.4
2017-10-24T01:57:50.245Z,95.5
2017-10-24T01:58:49.632Z,95.1
2017-10-24T01:59:48.634Z,95.2
2017-10-24T02:00:48.147Z,95.3
2017-10-24T02:01:46.781Z,95.1
2017-10-24T02:02:46.427Z,95.2
2017-10-24T02:03:45.436Z,95.3
2017-10-24T02:04:44.445Z,95.3
2017-10-24T02:05:14.769Z,95.3
2017-10-24T02:05:45.359Z,95.4
2017-10-24T02:06:15.806Z,95.4
2017-10-24T02:06:46.254Z,95.3
2017-10-24T02:07:16.701Z,95.3
2017-10-24T02:07:47.294Z,95.3
2017-10-24T02:08:40.765Z,95.5
2017-10-24T02:09:40.027Z,95.5
2017-10-24T02:10:39.160Z,95.5
2017-10-24T02:11:38.561Z,95.5
2017-10-24T02:12:37.713Z,95.5
2017-10-24T02:13:36.722Z,95.6
2017-10-24T02:14:35.862Z,95.7
2017-10-24T02:15:35.006Z,95.7
2017-10-24T02:16:34.141Z,95.8
2017-10-24T02:17:33.565Z,95.7
2017-10-24T02:18:32.707Z,95.7
2017-10-24T02:19:31.846Z,95.7
2017-10-24T02:20:30.725Z,95.8
2017-10-24T02:21:29.861Z,95.5
2017-10-24T02:22:28.880Z,95.5
2017-10-24T02:23:28.021Z,95.5
2017-10-24T02:24:27.302Z,95.7
2017-10-24T02:25:26.313Z,95.7
2017-10-24T02:26:25.465Z,95.7
2017-10-24T02:27:24.734Z,95.7
2017-10-24T02:28:23.871Z,95.7
2017-10-24T02:29:22.891Z,95.7
2017-10-24T02:30:22.404Z,95.5
2017-10-24T02:31:21.453Z,95.5
2017-10-24T02:32:20.336Z,95.6
2017-10-24T02:33:19.607Z,95.6
2017-10-24T02:34:18.619Z,95.6
2017-10-24T02:35:18.030Z,95.6
2017-10-24T02:36:17.041Z,95.6
2017-10-24T02:40:13.847Z,95.7
2017-10-24T02:41:12.623Z,95.4
2017-10-24T02:42:11.909Z,95.5
2017-10-24T02:43:10.811Z,95.5
2017-10-24T02:44:09.861Z,95.5
2017-10-24T02:45:09.131Z,95.5
2017-10-24T02:46:08.147Z,95.3
2017-10-24T02:46:38.970Z,95.3
2017-10-24T02:47:09.431Z,95.4
2017-10-24T02:47:39.794Z,95.4
2017-10-24T02:48:10.246Z,95.4
2017-10-24T02:48:40.836Z,95.4
2017-10-24T02:50:04.926Z,95.4
2017-10-24T02:51:04.311Z,95.4
2017-10-24T02:52:03.454Z,95.5
2017-10-24T02:53:02.622Z,95.5
2017-10-24T02:54:01.261Z,95.5
2017-10-24T02:55:00.669Z,95.5
2017-10-24T02:55:59.944Z,95.5
2017-10-24T02:56:59.085Z,95.6
2017-10-24T02:57:58.097Z,95.7
2017-10-24T02:58:28.658Z,95.7
2017-10-24T02:58:59.383Z,95.6
2017-10-24T02:59:29.852Z,95.6
2017-10-24T03:00:55.669Z,95.6
2017-10-24T03:01:54.805Z,95.6
2017-10-24T03:02:53.713Z,95.6
2017-10-24T03:03:52.986Z,95.7
2017-10-24T03:04:52.080Z,95.7
2017-10-24T03:05:51.371Z,95.8
2017-10-24T03:06:50.511Z,95.7
2017-10-24T03:07:49.516Z,95.7
2017-10-24T03:08:48.521Z,95.7
2017-10-24T03:09:47.798Z,95.8
2017-10-24T03:10:46.805Z,95.8
2017-10-24T03:11:46.076Z,95.7
2017-10-24T03:12:45.356Z,95.8
2017-10-24T03:13:44.506Z,95.7
2017-10-24T03:14:43.643Z,95.6
2017-10-24T03:15:42.658Z,95.6
2017-10-24T03:16:41.951Z,95.6
2017-10-24T03:17:40.964Z,95.6
2017-10-24T03:18:40.238Z,95.6
2017-10-24T03:19:39.517Z,95.6
2017-10-24T03:20:38.415Z,95.6
2017-10-24T03:21:37.560Z,95.5
2017-10-24T03:22:36.430Z,95.5
2017-10-24T03:23:36.074Z,95.5
2017-10-24T03:24:34.841Z,95.6
2017-10-24T03:25:34.226Z,95.6
2017-10-24T03:26:33.377Z,95.6
2017-10-24T03:27:32.614Z,95.6
2017-10-24T03:28:31.621Z,95.6
2017-10-24T03:29:02.206Z,95.6
2017-10-24T03:29:32.763Z,95.5
2017-10-24T03:30:29.909Z,95.6
2017-10-24T03:31:28.834Z,95.4
2017-10-24T03:32:28.349Z,95.5
2017-10-24T03:33:27.116Z,95.5
2017-10-24T03:34:26.264Z,95.5
2017-10-24T03:35:25.404Z,95.5
2017-10-24T03:36:24.789Z,95.5
2017-10-24T03:37:23.815Z,95.5
2017-10-24T03:38:23.327Z,95.5
2017-10-24T03:38:53.652Z,95.5
2017-10-24T03:39:24.105Z,95.5
2017-10-24T03:40:21.465Z,95.4
2017-10-24T03:41:20.340Z,95.4
2017-10-24T03:42:19.500Z,95.4
2017-10-24T03:43:18.520Z,95.3
2017-10-24T03:44:18.160Z,95.3
2017-10-24T03:45:17.182Z,95.3
2017-10-24T03:46:16.316Z,95.2
2017-10-24T03:47:15.319Z,95.2
2017-10-24T03:48:14.450Z,95.2
2017-10-24T03:49:13.589Z,95.2
2017-10-24T03:50:12.598Z,95.3
2017-10-24T03:52:10.866Z,95.1
2017-10-24T03:54:09.388Z,95.1
2017-10-24T03:55:08.398Z,95.1
2017-10-24T03:56:07.811Z,95.1
2017-10-24T03:57:06.576Z,95
2017-10-24T03:58:05.717Z,94.9
2017-10-24T03:59:05.235Z,94.8
2017-10-24T04:00:03.869Z,94.7
2017-10-24T04:01:03.007Z,94.8
2017-10-24T04:02:02.517Z,94.8
2017-10-24T04:03:01.534Z,94.7
2017-10-24T04:04:00.672Z,94.7
2017-10-24T04:05:59.072Z,94.4
2017-10-24T04:06:58.246Z,94.2
2017-10-24T04:07:57.373Z,93.8
2017-10-24T04:08:56.524Z,93.8
2017-10-24T04:09:55.538Z,94.1
2017-10-24T04:10:54.809Z,94
2017-10-24T04:11:53.952Z,94
2017-10-24T04:12:52.875Z,94.2
2017-10-24T04:13:51.883Z,94.3
2017-10-24T04:14:51.525Z,94.4
2017-10-24T04:15:50.163Z,94.5
2017-10-24T04:16:49.542Z,94.4
2017-10-24T04:17:48.584Z,94.5
2017-10-24T04:18:47.996Z,94.5
2017-10-24T04:19:47.139Z,94.5
2017-10-24T04:20:46.282Z,94.6
2017-10-24T04:21:45.294Z,94.6
2017-10-24T04:22:44.305Z,94.6
2017-10-24T04:23:43.313Z,94.7
2017-10-24T04:24:13.635Z,94.7
2017-10-24T04:24:44.090Z,94.6
2017-10-24T04:25:14.546Z,94.6
2017-10-24T04:26:41.034Z,94.6
2017-10-24T04:27:40.175Z,94.5
2017-10-24T04:28:39.318Z,94.5
2017-10-24T04:29:38.195Z,94.5
2017-10-24T04:30:37.838Z,94.5
2017-10-24T04:31:36.842Z,94.4
2017-10-24T04:32:35.856Z,94.5
2017-10-24T04:33:34.863Z,94.4
2017-10-24T04:34:05.566Z,94.4
2017-10-24T04:34:36.127Z,94.4
2017-10-24T04:35:06.589Z,94.4
2017-10-24T04:35:37.055Z,94.4
2017-10-24T04:36:07.373Z,94.4
2017-10-24T04:37:31.542Z,94.5
2017-10-24T04:38:30.688Z,94.5
2017-10-24T04:39:29.959Z,94.5
2017-10-24T04:40:28.973Z,94.4
2017-10-24T04:41:28.519Z,94.4
2017-10-24T04:42:27.162Z,94.4
2017-10-24T04:43:26.678Z,94.3
2017-10-24T04:44:25.817Z,94.4
2017-10-24T04:45:24.695Z,94.3
2017-10-24T04:46:23.857Z,94.2
2017-10-24T04:47:23.107Z,94.3
2017-10-24T04:48:22.349Z,94.3
2017-10-24T04:49:21.225Z,94.2
2017-10-24T04:50:20.735Z,94.3
2017-10-24T04:51:19.510Z,94.3
2017-10-24T04:52:19.046Z,94.4
2017-10-24T04:53:17.715Z,94.4
2017-10-24T04:54:17.355Z,94.4
2017-10-24T04:55:16.365Z,94.5
2017-10-24T04:56:15.643Z,94.5
2017-10-24T04:57:14.550Z,94.6
2017-10-24T04:58:13.426Z,94.5
2017-10-24T04:59:12.940Z,94.5
2017-10-24T05:00:12.082Z,94.5
2017-10-24T05:01:11.220Z,94.6
2017-10-24T05:02:10.121Z,94.5
2017-10-24T05:03:09.267Z,94.3
2017-10-24T05:03:40.086Z,94.3
2017-10-24T05:04:10.408Z,94.3
2017-10-24T05:04:40.732Z,94.3
2017-10-24T05:05:11.417Z,94.1
2017-10-24T05:05:42.004Z,94.1
2017-10-24T05:06:12.458Z,94
2017-10-24T05:06:43.082Z,94
2017-10-24T05:08:05.373Z,94
2017-10-24T05:09:04.247Z,94
2017-10-24T05:10:03.396Z,94
2017-10-24T05:11:02.643Z,94.1
2017-10-24T05:12:01.526Z,94.3
2017-10-24T05:13:00.664Z,94.2
2017-10-24T05:13:59.935Z,94.2
2017-10-24T05:14:30.256Z,94.2
2017-10-24T05:15:00.702Z,94.3
2017-10-24T05:15:31.151Z,94.3
2017-10-24T05:16:01.475Z,94.3
2017-10-24T05:16:32.187Z,94.3
2017-10-24T05:17:02.754Z,94.3
2017-10-24T05:17:33.077Z,94.3
2017-10-24T05:19:54.765Z,94.3
2017-10-24T05:21:52.933Z,94.5
2017-10-24T05:22:52.449Z,94.3
2017-10-24T05:23:51.214Z,94.2
2017-10-24T05:24:50.364Z,94.2
2017-10-24T05:25:49.748Z,94.3
2017-10-24T05:26:48.876Z,94.3
2017-10-24T05:27:47.904Z,94.3
2017-10-24T05:28:47.325Z,94.3
2017-10-24T05:29:46.468Z,94.5
2017-10-24T05:30:45.234Z,94.3
2017-10-24T05:31:44.488Z,94.2
2017-10-24T05:32:43.631Z,94.3
2017-10-24T05:33:42.903Z,94.3
2017-10-24T05:34:41.785Z,94.1
2017-10-24T05:35:40.925Z,94.2
2017-10-24T05:36:40.303Z,94
2017-10-24T05:37:39.473Z,94.1
2017-10-24T05:38:38.614Z,94.2
2017-10-24T05:39:37.353Z,94.2
2017-10-24T05:40:37.006Z,94.1
2017-10-24T05:41:36.445Z,94
2017-10-24T05:42:35.076Z,94
2017-10-24T05:43:34.358Z,93.9
2017-10-24T05:44:33.392Z,93.9
2017-10-24T05:45:32.255Z,93.8
2017-10-24T05:46:31.405Z,93.4
2017-10-24T05:47:01.989Z,93.4
2017-10-24T05:48:29.963Z,93.2
2017-10-24T05:49:29.113Z,93.2
2017-10-24T05:50:28.258Z,93.3
2017-10-24T05:51:27.397Z,93.2
2017-10-24T05:52:26.666Z,93.2
2017-10-24T05:53:25.668Z,93.3
2017-10-24T05:54:24.445Z,93.2
2017-10-24T05:55:23.728Z,93.2
2017-10-24T05:56:23.001Z,93.1
2017-10-24T05:56:53.198Z,93.1
2017-10-24T05:58:21.405Z,93.2
2017-10-24T05:59:20.068Z,93.3
2017-10-24T06:00:19.744Z,93.4
2017-10-24T06:01:18.888Z,93.3
2017-10-24T06:02:17.893Z,93.4
2017-10-24T06:03:17.042Z,93.3
2017-10-24T06:04:16.182Z,92.9
2017-10-24T06:05:15.197Z,93
2017-10-24T06:06:14.586Z,92.8
2017-10-24T06:08:12.738Z,92.9
2017-10-24T06:09:11.529Z,93
2017-10-24T06:10:10.547Z,93
2017-10-24T06:11:10.061Z,92.9
2017-10-24T06:12:09.345Z,93
2017-10-24T06:13:08.110Z,93
2017-10-24T06:14:07.248Z,93.1
2017-10-24T06:15:06.753Z,93.1
2017-10-24T06:16:05.624Z,93
2017-10-24T06:17:04.870Z,93
2017-10-24T06:18:03.902Z,92.9
2017-10-24T06:19:03.181Z,93
2017-10-24T06:20:02.187Z,92.9
2017-10-24T06:21:01.438Z,92.9
2017-10-24T06:22:00.361Z,92.8
2017-10-24T06:22:59.501Z,92.7
2017-10-24T06:23:58.644Z,92.5
2017-10-24T06:24:58.026Z,92.7
2017-10-24T06:25:57.178Z,92.7
2017-10-24T06:26:55.930Z,92.7
2017-10-24T06:27:55.079Z,92.5
2017-10-24T06:28:54.359Z,92.4
2017-10-24T06:29:53.496Z,92.5
2017-10-24T06:31:51.759Z,92.5
2017-10-24T06:32:51.012Z,92.2
2017-10-24T06:33:50.141Z,92.5
2017-10-24T06:34:49.153Z,92.4
2017-10-24T06:35:48.304Z,92.2
2017-10-24T06:36:47.455Z,92.4
2017-10-24T06:37:46.616Z,92.6
2017-10-24T06:38:45.969Z,92.5
2017-10-24T06:39:44.860Z,92.6
2017-10-24T06:40:44.133Z,92.6
2017-10-24T06:41:43.145Z,92.6
2017-10-24T06:42:42.562Z,92.6
2017-10-24T06:43:41.575Z,92.9
2017-10-24T06:44:40.602Z,92.9
2017-10-24T06:45:39.756Z,92.8
2017-10-24T06:46:38.759Z,92.8
2017-10-24T06:47:37.935Z,93.1
2017-10-24T06:48:37.343Z,93.1
2017-10-24T06:49:36.346Z,93.1
2017-10-24T06:50:35.489Z,92.8
2017-10-24T06:51:34.493Z,92.8
2017-10-24T06:52:05.254Z,92.8
2017-10-24T06:52:35.590Z,92.7
2017-10-24T06:53:32.583Z,92.8
2017-10-24T06:54:31.964Z,92.6
2017-10-24T06:55:30.974Z,92.2
2017-10-24T06:56:30.128Z,92.3
2017-10-24T06:57:29.130Z,92.3
2017-10-24T06:58:28.405Z,92.2
2017-10-24T06:59:27.433Z,92.2
2017-10-24T07:00:26.814Z,92.1
2017-10-24T07:01:25.953Z,91.9
2017-10-24T07:02:24.839Z,91.8
2017-10-24T07:03:23.974Z,91.9
2017-10-24T07:04:23.478Z,92.1
2017-10-24T07:05:22.255Z,91.7
2017-10-24T07:06:21.539Z,91.6
2017-10-24T07:07:20.679Z,91.7
2017-10-24T07:08:20.054Z,91.9
2017-10-24T07:09:18.813Z,91.7
2017-10-24T07:10:18.089Z,91.7
2017-10-24T07:11:17.227Z,91.5
2017-10-24T07:12:16.637Z,91.3
2017-10-24T07:13:15.558Z,91.2
2017-10-24T07:14:14.938Z,91.1
2017-10-24T07:15:14.239Z,91.3
2017-10-24T07:16:13.248Z,90.8
2017-10-24T07:17:12.129Z,90.4
2017-10-24T07:18:11.137Z,90.3
2017-10-24T07:19:10.409Z,90.3
2017-10-24T07:20:09.819Z,90.5
2017-10-24T07:21:08.837Z,90.9
2017-10-24T07:22:08.131Z,90.4
2017-10-24T07:22:38.318Z,90.4
2017-10-24T07:23:08.636Z,90.7
2017-10-24T07:24:06.395Z,90.8
2017-10-24T07:25:05.269Z,91
2017-10-24T07:26:04.419Z,89.9
2017-10-24T07:27:03.925Z,90.4
2017-10-24T07:28:02.933Z,90.4
2017-10-24T07:29:01.705Z,89.8
2017-10-24T07:30:01.240Z,89.7
2017-10-24T07:31:00.517Z,89.3
2017-10-24T07:31:59.285Z,89.6
2017-10-24T07:32:58.787Z,89.5
2017-10-24T07:33:29.108Z,89.5
2017-10-24T07:34:56.538Z,89.9
2017-10-24T07:36:54.926Z,89.6
2017-10-24T07:37:54.311Z,89.5
2017-10-24T07:38:53.317Z,89.3
2017-10-24T07:39:52.597Z,89.8
2017-10-24T07:41:50.856Z,89.3
2017-10-24T07:42:49.870Z,89.9
2017-10-24T07:43:49.013Z,89.4
2017-10-24T07:44:48.016Z,89.5
2017-10-24T07:45:47.173Z,89.6
2017-10-24T07:46:46.833Z,89.8
2017-10-24T07:47:45.973Z,89.7
2017-10-24T07:48:44.993Z,89.6
2017-10-24T07:49:44.004Z,89.6
2017-10-24T07:50:43.022Z,89.2
2017-10-24T07:51:42.404Z,89.7
2017-10-24T07:52:41.554Z,89.7
2017-10-24T07:53:40.426Z,89.7
2017-10-24T07:54:39.686Z,88.7
2017-10-24T07:55:38.849Z,88.4
2017-10-24T07:56:37.857Z,87.8
2017-10-24T07:57:37.137Z,87.7
2017-10-24T07:58:36.011Z,87.6
2017-10-24T07:59:35.544Z,87
2017-10-24T08:00:34.548Z,87.2
2017-10-24T08:01:33.972Z,87.5
2017-10-24T08:02:32.718Z,87.4
2017-10-24T08:03:32.124Z,87.2
2017-10-24T08:04:31.265Z,86.7
2017-10-24T08:05:30.676Z,86.3
2017-10-24T08:06:29.549Z,86.7
2017-10-24T08:07:28.434Z,85.6
2017-10-24T08:08:27.942Z,86.3
2017-10-24T08:09:26.952Z,85.2
2017-10-24T08:10:25.962Z,85.7
2017-10-24T08:11:25.119Z,86.2
2017-10-24T08:12:24.409Z,86.4
2017-10-24T08:13:23.413Z,85.8
2017-10-24T08:14:22.430Z,85.9
2017-10-24T08:15:21.938Z,86.1
2017-10-24T08:16:20.947Z,85
2017-10-24T08:17:20.232Z,84.9
2017-10-24T08:18:19.376Z,84.9
2017-10-24T08:20:17.645Z,83.8
2017-10-24T08:21:16.522Z,84.4
2017-10-24T08:22:16.040Z,84.8
2017-10-24T08:23:15.046Z,83.3
2017-10-24T08:24:14.196Z,82.5
2017-10-24T08:25:13.597Z,82.9
2017-10-24T08:26:12.475Z,83.3
2017-10-24T08:27:11.487Z,83.5
2017-10-24T08:28:11.141Z,82.9
2017-10-24T08:29:10.417Z,83.1
2017-10-24T08:30:09.195Z,82.6
2017-10-24T08:31:08.203Z,81.4
2017-10-24T08:32:07.607Z,81.4
2017-10-24T08:33:06.754Z,81.3
2017-10-24T08:34:05.627Z,81.4
2017-10-24T08:35:04.776Z,81.1
2017-10-24T08:36:04.418Z,80.4
2017-10-24T08:37:03.556Z,81.5
2017-10-24T08:38:02.295Z,81.2
2017-10-24T08:39:01.440Z,81.4
2017-10-24T08:40:00.712Z,80.9
2017-10-24T08:41:00.093Z,80.6
2017-10-24T08:41:59.236Z,81.3
2017-10-24T08:42:58.373Z,79.9
2017-10-24T08:43:57.513Z,80.9
2017-10-24T08:44:56.670Z,80.9
2017-10-24T08:45:55.841Z,80.7
2017-10-24T08:46:54.986Z,80.4
2017-10-24T08:47:54.280Z,80.5
2017-10-24T08:48:53.424Z,79.9
2017-10-24T08:49:52.566Z,80.5
2017-10-24T08:50:51.974Z,80.3
2017-10-24T08:51:50.842Z,79.9
2017-10-24T08:52:50.223Z,80.2
2017-10-24T08:53:20.816Z,80.2
2017-10-24T08:54:48.512Z,79.6
2017-10-24T08:55:47.527Z,80.4
2017-10-24T08:56:47.065Z,80.5
2017-10-24T08:58:44.955Z,79.2
2017-10-24T08:59:44.465Z,79.3
2017-10-24T09:00:43.229Z,80.4
2017-10-24T09:01:42.501Z,79.8
2017-10-24T09:02:41.878Z,80.7
2017-10-24T09:03:41.148Z,79.8
2017-10-24T09:04:40.021Z,78.7
2017-10-24T09:06:38.789Z,78.6
2017-10-24T09:07:37.797Z,78.8
2017-10-24T09:08:36.937Z,78.5
2017-10-24T09:09:36.082Z,78.6
2017-10-24T09:10:35.221Z,79.3
2017-10-24T09:11:34.378Z,78.9
2017-10-24T09:12:33.389Z,78
2017-10-24T09:13:32.418Z,77.4
2017-10-24T09:14:31.931Z,78.5
2017-10-24T09:15:31.066Z,76.6
2017-10-24T09:16:30.214Z,77.4
2017-10-24T09:17:29.602Z,77.2
2017-10-24T09:18:28.877Z,76.5
2017-10-24T09:19:27.645Z,77.1
2017-10-24T09:20:27.157Z,76.6
2017-10-24T09:21:26.162Z,77.5
2017-10-24T09:22:25.033Z,77.6
2017-10-24T09:23:24.553Z,76.5
2017-10-24T09:24:23.697Z,76.4
2017-10-24T09:25:22.978Z,75.5
2017-10-24T09:26:22.132Z,76.4
2017-10-24T09:27:21.416Z,76
2017-10-24T09:28:20.424Z,76.5
2017-10-24T09:29:19.558Z,76.5
2017-10-24T09:30:18.568Z,76.5
2017-10-24T09:31:18.210Z,75.8
2017-10-24T09:32:16.988Z,76.9
2017-10-24T09:33:16.144Z,77
2017-10-24T09:34:15.657Z,76.6
2017-10-24T09:35:14.832Z,76.8
2017-10-24T09:36:13.990Z,76.5
2017-10-24T09:37:12.763Z,76.5
2017-10-24T09:38:12.002Z,77.1
2017-10-24T09:39:11.265Z,77.2
2017-10-24T09:40:10.541Z,76.9
2017-10-24T09:41:09.944Z,77
2017-10-24T09:42:09.082Z,77.4
2017-10-24T09:43:08.220Z,77.7
2017-10-24T09:44:07.468Z,77.2
2017-10-24T09:45:06.342Z,78.3
2017-10-24T09:46:05.624Z,77.4
2017-10-24T09:47:04.755Z,78.2
2017-10-24T09:48:04.160Z,77.9
2017-10-24T09:49:03.427Z,76.9
2017-10-24T09:50:02.705Z,77.4
2017-10-24T09:51:01.346Z,77.7
2017-10-24T09:52:00.998Z,78.3
2017-10-24T09:53:00.013Z,79.3
2017-10-24T09:53:59.154Z,79.3
2017-10-24T09:54:58.297Z,77.6
2017-10-24T09:55:57.438Z,78.5
2017-10-24T09:56:56.455Z,78.4
2017-10-24T09:57:56.236Z,79.2
2017-10-24T09:58:54.867Z,78.4
2017-10-24T09:59:54.505Z,79
2017-10-24T10:00:53.283Z,78.8
2017-10-24T10:01:52.797Z,79.3
2017-10-24T10:02:51.805Z,78.1
2017-10-24T10:03:51.260Z,78.6
2017-10-24T10:04:50.543Z,77.7
2017-10-24T10:05:49.187Z,79.3
2017-10-24T10:06:48.834Z,78.2
2017-10-24T10:07:48.098Z,77.7
2017-10-24T10:08:47.099Z,77.6
2017-10-24T10:09:45.979Z,77.6
2017-10-24T10:10:45.362Z,77.4
2017-10-24T10:11:44.511Z,77.8
2017-10-24T10:12:43.808Z,78.1
2017-10-24T10:13:43.088Z,77.6
2017-10-24T10:14:42.097Z,77.8
2017-10-24T10:15:41.468Z,77.4
2017-10-24T10:16:40.356Z,77.3
2017-10-24T10:17:39.867Z,78
2017-10-24T10:18:39.012Z,78.3
2017-10-24T10:19:37.886Z,78
2017-10-24T10:20:37.421Z,77.3
2017-10-24T10:21:36.697Z,78
2017-10-24T10:22:35.710Z,77.5
2017-10-24T10:23:35.117Z,77.7
2017-10-24T10:24:33.861Z,77.2
2017-10-24T10:25:33.397Z,77
2017-10-24T10:26:32.416Z,77.2
2017-10-24T10:27:31.795Z,76.8
2017-10-24T10:28:30.941Z,76.9
2017-10-24T10:29:30.236Z,78
2017-10-24T10:30:29.167Z,77.2
2017-10-24T10:30:59.616Z,77.2
2017-10-24T10:31:29.938Z,77.3
2017-10-24T10:32:27.691Z,75.2
2017-10-24T10:33:26.842Z,76.1
2017-10-24T10:34:26.129Z,76
2017-10-24T10:36:24.285Z,76
2017-10-24T10:37:23.656Z,75.9
2017-10-24T10:38:22.900Z,76
2017-10-24T10:39:22.181Z,76.4
2017-10-24T10:40:21.189Z,76.1
2017-10-24T10:41:20.435Z,77
2017-10-24T10:41:51.260Z,77
2017-10-24T10:42:21.957Z,76.2
2017-10-24T10:43:19.085Z,76.8
2017-10-24T10:44:18.221Z,76.3
2017-10-24T10:45:17.226Z,77.6
2017-10-24T10:46:16.376Z,76.6
2017-10-24T10:47:15.640Z,76
2017-10-24T10:48:15.022Z,75.5
2017-10-24T10:49:14.172Z,75.5
2017-10-24T10:50:13.178Z,75.1
2017-10-24T10:51:12.317Z,74.8
2017-10-24T10:52:11.458Z,75.3
2017-10-24T10:53:10.965Z,75.4
2017-10-24T10:54:09.840Z,76.1
2017-10-24T10:55:09.154Z,75.2
2017-10-24T10:56:08.285Z,75.9
2017-10-24T10:57:07.683Z,75.3
2017-10-24T10:58:06.822Z,76.1
2017-10-24T10:59:06.331Z,75.7
2017-10-24T11:00:05.474Z,76.7
2017-10-24T11:01:04.371Z,75
2017-10-24T11:02:03.398Z,74.7
2017-10-24T11:03:03.037Z,74.5
2017-10-24T11:04:02.182Z,75.4
2017-10-24T11:05:01.345Z,75.7
2017-10-24T11:06:00.362Z,74.3
2017-10-24T11:06:59.731Z,73.7
2017-10-24T11:07:58.750Z,74.1
2017-10-24T11:08:57.902Z,74.8
2017-10-24T11:09:57.280Z,75.1
2017-10-24T11:10:56.555Z,74.8
2017-10-24T11:11:55.697Z,74.8
2017-10-24T11:12:55.108Z,75.3
2017-10-24T11:13:53.752Z,74.8
2017-10-24T11:14:53.132Z,75.6
2017-10-24T11:15:52.271Z,74.9
2017-10-24T11:16:51.920Z,75.3
2017-10-24T11:17:51.060Z,76.1
2017-10-24T11:18:49.826Z,74.2
2017-10-24T11:19:49.097Z,74.3
2017-10-24T11:20:48.503Z,74.8
2017-10-24T11:21:47.783Z,74
2017-10-24T11:22:18.240Z,74
2017-10-24T11:22:48.563Z,75
2017-10-24T11:23:19.016Z,75
2017-10-24T11:23:49.335Z,74.8
2017-10-24T11:24:19.886Z,74.8
2017-10-24T11:24:50.357Z,74.4
2017-10-24T11:25:20.686Z,74.4
2017-10-24T11:26:43.362Z,74.2
2017-10-24T11:27:42.882Z,74.1
2017-10-24T11:28:42.258Z,74
2017-10-24T11:29:41.416Z,74.1
2017-10-24T11:30:40.319Z,75
2017-10-24T11:31:39.703Z,74.5
2017-10-24T11:32:38.840Z,73.5
2017-10-24T11:33:37.979Z,74
2017-10-24T11:34:37.489Z,73.5
2017-10-24T11:35:36.365Z,73.6
2017-10-24T11:36:35.613Z,74.3
2017-10-24T11:37:34.625Z,73.5
2017-10-24T11:38:34.267Z,73
2017-10-24T11:40:32.528Z,73.2
2017-10-24T11:41:31.665Z,73.3
2017-10-24T11:42:31.045Z,73.3
2017-10-24T11:43:30.054Z,73.4
2017-10-24T11:44:29.461Z,73.2
2017-10-24T11:45:28.741Z,72.7
2017-10-24T11:46:27.883Z,72.8
2017-10-24T11:47:27.026Z,73.8
2017-10-24T11:48:25.896Z,73.3
2017-10-24T11:49:25.405Z,73.6
2017-10-24T11:50:24.289Z,73.2
2017-10-24T11:51:23.823Z,72.5
2017-10-24T11:52:23.094Z,73.2
2017-10-24T11:53:22.106Z,72.7
2017-10-24T11:54:21.375Z,72.8
2017-10-24T11:56:19.662Z,72.2
2017-10-24T11:57:18.937Z,71.7
2017-10-24T11:58:18.083Z,71.8
2017-10-24T12:00:16.476Z,72
2017-10-24T12:01:16.127Z,71.7
2017-10-24T12:02:15.277Z,72.5
2017-10-24T12:03:14.285Z,71.6
2017-10-24T12:04:13.429Z,71.9
2017-10-24T12:05:12.429Z,72.4
2017-10-24T12:05:42.893Z,72.4
2017-10-24T12:06:13.365Z,72.1
2017-10-24T12:07:11.126Z,71.1
2017-10-24T12:08:10.395Z,71.8
2017-10-24T12:09:09.678Z,72
2017-10-24T12:11:07.976Z,72.5
2017-10-24T12:12:07.128Z,71.8
2017-10-24T12:13:06.246Z,72.2
2017-10-24T12:14:05.627Z,73.3
2017-10-24T12:15:04.643Z,71.9
2017-10-24T12:16:04.049Z,72.7
2017-10-24T12:17:02.929Z,72.2
2017-10-24T12:18:02.449Z,71.9
2017-10-24T12:19:01.870Z,71.6
2017-10-24T12:20:01.160Z,72.2
2017-10-24T12:20:59.815Z,72.1
2017-10-24T12:21:59.320Z,72.6
2017-10-24T12:22:58.327Z,72.2
2017-10-24T12:24:56.986Z,71.8
2017-10-24T12:25:56.257Z,70.9
2017-10-24T12:26:55.390Z,71.8
2017-10-24T12:27:54.528Z,71.3
2017-10-24T12:28:53.666Z,71.3
2017-10-24T12:29:52.802Z,71.2
2017-10-24T12:30:52.326Z,73
2017-10-24T12:31:51.610Z,71.3
2017-10-24T12:32:50.521Z,70.9
2017-10-24T12:33:49.899Z,71
2017-10-24T12:34:49.036Z,71.3
2017-10-24T12:35:48.055Z,72.4
2017-10-24T12:36:47.836Z,71.4
2017-10-24T12:38:45.857Z,70.9
2017-10-24T12:39:45.361Z,71.5
2017-10-24T12:40:44.369Z,72.2
2017-10-24T12:41:43.654Z,72
2017-10-24T12:42:42.796Z,72
2017-10-24T12:43:42.180Z,71.5
2017-10-24T12:44:41.462Z,71.8
2017-10-24T12:45:40.743Z,70.9
2017-10-24T12:46:39.758Z,70.2
2017-10-24T12:47:38.906Z,70.6
2017-10-24T12:48:38.288Z,71.7
2017-10-24T12:49:37.295Z,71.3
2017-10-24T12:50:36.562Z,71.1
2017-10-24T12:52:34.959Z,72.5
2017-10-24T12:53:34.110Z,71.8
2017-10-24T12:54:33.485Z,72
2017-10-24T12:55:32.756Z,71.9
2017-10-24T12:56:31.792Z,72.2
2017-10-24T12:57:31.065Z,72.2
2017-10-24T12:58:30.443Z,72.8
2017-10-24T12:59:29.588Z,71.3
2017-10-24T13:00:28.615Z,71.7
2017-10-24T13:00:59.060Z,71.7
2017-10-24T13:02:27.391Z,71.6
2017-10-24T13:03:26.271Z,73.1
2017-10-24T13:04:25.776Z,72.3
2017-10-24T13:05:25.059Z,73
2017-10-24T13:06:24.212Z,71.3
2017-10-24T13:07:23.218Z,71
2017-10-24T13:08:22.360Z,71.4
2017-10-24T13:09:21.872Z,71.3
2017-10-24T13:10:21.251Z,71.4
2017-10-24T13:11:20.125Z,71.9
2017-10-24T13:12:19.416Z,71
2017-10-24T13:13:18.587Z,71.3